createdAt,value
2017-09-09T00:00:34.996Z,10.17
2017-09-09T00:03:09.595Z,9.90
2017-09-09T00:05:44.228Z,11.60
2017-09-09T00:08:18.564Z,10.40
2017-09-09T00:10:53.026Z,10.80
2017-09-09T00:13:27.711Z,10.80
2017-09-09T00:16:02.255Z,12.67
2017-09-09T00:18:36.697Z,10.80
2017-09-09T00:21:11.327Z,10.53
2017-09-09T00:23:45.914Z,11.20
2017-09-09T00:26:20.558Z,12.20
2017-09-09T00:28:55.113Z,10.63
2017-09-09T00:31:29.631Z,10.87
2017-09-09T00:34:03.870Z,11.20
2017-09-09T00:36:38.489Z,10.83
2017-09-09T00:39:13.219Z,13.20
2017-09-09T00:41:47.674Z,12.37
2017-09-09T00:44:22.320Z,9.70
2017-09-09T00:46:56.801Z,10.70
2017-09-09T00:49:31.476Z,10.67
2017-09-09T00:52:05.412Z,9.10
2017-09-09T00:54:39.354Z,10.57
2017-09-09T00:57:13.918Z,9.80
2017-09-09T00:59:48.525Z,9.67
2017-09-09T01:02:23.311Z,9.60
2017-09-09T01:04:57.741Z,9.57
2017-09-09T01:07:32.371Z,10.57
2017-09-09T01:10:14.860Z,12.27
2017-09-09T01:12:49.338Z,11.90
2017-09-09T01:15:23.218Z,10.47
2017-09-09T01:17:57.770Z,10.10
2017-09-09T01:20:32.298Z,10.80
2017-09-09T01:23:06.422Z,11.33
2017-09-09T01:25:40.963Z,10.70
2017-09-09T01:28:15.092Z,10.43
2017-09-09T01:30:49.612Z,10.80
2017-09-09T01:33:24.260Z,11.93
2017-09-09T01:35:58.896Z,9.73
2017-09-09T01:38:33.445Z,10.57
2017-09-09T01:41:08.223Z,10.40
2017-09-09T01:43:43.510Z,12.40
2017-09-09T01:46:18.098Z,10.27
2017-09-09T01:48:52.769Z,9.77
2017-09-09T01:51:27.374Z,11.47
2017-09-09T01:54:01.897Z,8.70
2017-09-09T01:56:36.486Z,10.67
2017-09-09T01:59:10.961Z,10.90
2017-09-09T02:01:45.547Z,11.47
2017-09-09T02:04:20.439Z,10.93
2017-09-09T02:06:55.579Z,12.50
2017-09-09T02:09:30.161Z,11.80
2017-09-09T02:12:04.730Z,11.00
2017-09-09T02:14:39.338Z,11.20
2017-09-09T02:17:13.982Z,10.70
2017-09-09T02:19:48.535Z,11.50
2017-09-09T02:22:23.050Z,9.93
2017-09-09T02:24:57.707Z,11.60
2017-09-09T02:27:32.346Z,11.37
2017-09-09T02:30:13.899Z,9.90
2017-09-09T02:32:48.474Z,11.57
2017-09-09T02:35:22.974Z,13.03
2017-09-09T02:37:57.270Z,12.83
2017-09-09T02:40:31.797Z,11.60
2017-09-09T02:43:06.383Z,11.67
2017-09-09T02:45:40.907Z,12.30
2017-09-09T02:48:15.128Z,12.30
2017-09-09T02:50:49.774Z,11.73
2017-09-09T02:53:24.366Z,12.37
2017-09-09T02:55:58.925Z,12.03
2017-09-09T02:58:33.391Z,10.73
2017-09-09T03:01:08.003Z,11.87
2017-09-09T03:03:42.816Z,12.00
2017-09-09T03:06:17.272Z,11.50
2017-09-09T03:08:51.946Z,12.87
2017-09-09T03:11:26.435Z,12.27
2017-09-09T03:14:01.086Z,12.20
2017-09-09T03:16:35.708Z,12.00
2017-09-09T03:19:10.210Z,13.10
2017-09-09T03:21:44.752Z,13.23
2017-09-09T03:24:19.404Z,13.17
2017-09-09T03:26:54.051Z,13.70
2017-09-09T03:29:28.919Z,12.30
2017-09-09T03:32:03.541Z,11.57
2017-09-09T03:34:38.029Z,13.80
2017-09-09T03:37:12.602Z,12.90
2017-09-09T03:39:47.266Z,11.80
2017-09-09T03:42:21.785Z,12.40
2017-09-09T03:44:56.207Z,12.77
2017-09-09T03:47:30.847Z,13.07
2017-09-09T03:50:08.021Z,13.90
2017-09-09T03:52:42.567Z,12.90
2017-09-09T03:55:17.350Z,13.17
2017-09-09T03:57:51.817Z,13.20
2017-09-09T04:00:26.525Z,13.40
2017-09-09T04:03:01.895Z,13.10
2017-09-09T04:05:36.378Z,11.97
2017-09-09T04:08:10.867Z,12.97
2017-09-09T04:10:45.494Z,14.10
2017-09-09T04:13:20.023Z,14.00
2017-09-09T04:15:54.571Z,13.13
2017-09-09T04:18:29.021Z,14.77
2017-09-09T04:21:03.494Z,13.50
2017-09-09T04:23:38.126Z,13.20
2017-09-09T04:26:12.679Z,14.30
2017-09-09T04:28:47.242Z,12.17
2017-09-09T04:31:22.598Z,14.17
2017-09-09T04:33:57.131Z,13.20
2017-09-09T04:36:31.724Z,13.10
2017-09-09T04:39:06.049Z,12.73
2017-09-09T04:41:40.545Z,12.90
2017-09-09T04:44:15.088Z,13.03
2017-09-09T04:46:50.243Z,12.10
2017-09-09T04:49:24.877Z,12.70
2017-09-09T04:51:59.387Z,14.53
2017-09-09T04:54:34.013Z,12.87
2017-09-09T04:57:08.533Z,13.40
2017-09-09T04:59:43.030Z,15.03
2017-09-09T05:02:17.586Z,15.43
2017-09-09T05:04:52.178Z,14.83
2017-09-09T05:07:26.395Z,15.03
2017-09-09T05:10:01.155Z,12.37
2017-09-09T05:12:35.603Z,12.60
2017-09-09T05:15:10.267Z,13.17
2017-09-09T05:17:44.878Z,15.57
2017-09-09T05:20:19.402Z,15.47
2017-09-09T05:22:53.848Z,15.20
2017-09-09T05:25:28.425Z,13.30
2017-09-09T05:28:02.895Z,13.60
2017-09-09T05:30:37.462Z,14.00
2017-09-09T05:33:11.857Z,14.00
2017-09-09T05:35:46.499Z,16.00
2017-09-09T05:38:20.933Z,14.47
2017-09-09T05:40:55.451Z,13.33
2017-09-09T05:43:30.082Z,15.10
2017-09-09T05:46:04.857Z,13.97
2017-09-09T05:48:39.323Z,15.83
2017-09-09T05:51:13.783Z,17.10
2017-09-09T05:53:48.266Z,15.27
2017-09-09T05:56:22.802Z,20.03
2017-09-09T05:58:57.337Z,14.97
2017-09-09T06:01:31.835Z,14.03
2017-09-09T06:04:06.479Z,13.77
2017-09-09T06:06:41.110Z,15.23
2017-09-09T06:09:15.392Z,14.80
2017-09-09T06:11:50.016Z,15.10
2017-09-09T06:14:24.531Z,16.20
2017-09-09T06:16:59.052Z,15.60
2017-09-09T06:19:33.613Z,15.33
2017-09-09T06:22:08.203Z,15.47
2017-09-09T06:24:43.051Z,14.23
2017-09-09T06:27:17.846Z,14.33
2017-09-09T06:29:52.434Z,15.53
2017-09-09T06:32:27.145Z,16.90
2017-09-09T06:35:01.825Z,16.60
2017-09-09T06:37:36.415Z,18.23
2017-09-09T06:40:11.026Z,18.43
2017-09-09T06:42:45.708Z,17.00
2017-09-09T06:45:20.181Z,18.07
2017-09-09T06:47:54.686Z,18.97
2017-09-09T06:50:29.229Z,17.70
2017-09-09T06:53:03.806Z,17.60
2017-09-09T06:55:38.341Z,17.50
2017-09-09T06:58:12.907Z,15.63
2017-09-09T07:00:47.408Z,16.20
2017-09-09T07:03:22.100Z,16.90
2017-09-09T07:05:56.591Z,18.00
2017-09-09T07:08:31.063Z,17.27
2017-09-09T07:11:06.422Z,15.53
2017-09-09T07:13:40.934Z,15.30
2017-09-09T07:16:15.603Z,16.30
2017-09-09T07:18:50.086Z,15.07
2017-09-09T07:21:24.638Z,13.43
2017-09-09T07:23:59.308Z,15.97
2017-09-09T07:26:33.799Z,16.77
2017-09-09T07:29:08.375Z,14.00
2017-09-09T07:31:43.088Z,16.03
2017-09-09T07:34:17.513Z,13.90
2017-09-09T07:36:52.023Z,15.80
2017-09-09T07:39:26.563Z,14.87
2017-09-09T07:42:01.259Z,13.87
2017-09-09T07:44:35.864Z,12.53
2017-09-09T07:47:10.394Z,11.47
2017-09-09T07:49:45.978Z,12.27
2017-09-09T07:52:20.618Z,13.10
2017-09-09T07:54:55.050Z,11.13
2017-09-09T07:57:29.575Z,13.50
2017-09-09T08:00:06.000Z,11.43
2017-09-09T08:02:40.565Z,12.03
2017-09-09T08:05:16.157Z,10.63
2017-09-09T08:07:50.853Z,11.17
2017-09-09T08:10:25.378Z,12.23
2017-09-09T08:12:59.894Z,11.70
2017-09-09T08:15:34.439Z,11.67
2017-09-09T08:18:08.927Z,13.37
2017-09-09T08:20:43.468Z,9.57
2017-09-09T08:23:17.936Z,9.97
2017-09-09T08:25:52.458Z,11.83
2017-09-09T08:28:27.141Z,11.20
2017-09-09T08:31:01.636Z,10.10
2017-09-09T08:33:36.218Z,9.60
2017-09-09T08:36:10.885Z,8.70
2017-09-09T08:38:45.466Z,9.90
2017-09-09T08:41:20.027Z,11.60
2017-09-09T08:43:54.501Z,9.90
2017-09-09T08:46:28.921Z,9.40
2017-09-09T08:49:03.495Z,11.23
2017-09-09T08:51:37.974Z,9.47
2017-09-09T08:54:12.678Z,9.10
2017-09-09T08:56:47.262Z,8.27
2017-09-09T08:59:21.810Z,9.13
2017-09-09T09:01:56.392Z,8.80
2017-09-09T09:04:30.692Z,9.43
2017-09-09T09:07:05.334Z,8.33
2017-09-09T09:09:40.006Z,8.13
2017-09-09T09:12:14.542Z,8.30
2017-09-09T09:14:48.824Z,8.63
2017-09-09T09:17:23.403Z,8.00
2017-09-09T09:19:58.146Z,6.20
2017-09-09T09:22:32.754Z,8.17
2017-09-09T09:25:15.038Z,9.17
2017-09-09T09:27:49.606Z,7.10
2017-09-09T09:30:24.202Z,7.70
2017-09-09T09:32:58.841Z,7.57
2017-09-09T09:35:33.497Z,7.50
2017-09-09T09:38:07.998Z,6.80
2017-09-09T09:40:42.681Z,7.37
2017-09-09T09:43:17.369Z,6.30
2017-09-09T09:45:51.865Z,6.70
2017-09-09T09:48:26.372Z,5.97
2017-09-09T09:51:00.894Z,5.90
2017-09-09T09:53:35.433Z,7.20
2017-09-09T09:56:10.081Z,5.40
2017-09-09T09:58:44.540Z,5.80
2017-09-09T10:01:19.139Z,4.47
2017-09-09T10:03:53.782Z,5.27
2017-09-09T10:06:28.383Z,5.10
2017-09-09T10:09:02.676Z,5.10
2017-09-09T10:11:37.173Z,5.10
2017-09-09T10:14:11.775Z,6.17
2017-09-09T10:16:46.502Z,5.00
2017-09-09T10:19:21.110Z,6.30
2017-09-09T10:21:57.201Z,5.97
2017-09-09T10:24:46.446Z,6.30
2017-09-09T10:27:20.716Z,5.90
2017-09-09T10:29:55.214Z,5.53
2017-09-09T10:32:29.631Z,5.40
2017-09-09T10:35:06.395Z,5.80
2017-09-09T10:37:40.926Z,5.23
2017-09-09T10:40:15.937Z,4.97
2017-09-09T10:42:50.396Z,5.63
2017-09-09T10:45:24.922Z,5.60
2017-09-09T10:47:59.346Z,5.37
2017-09-09T10:50:33.974Z,5.23
2017-09-09T10:53:09.306Z,5.60
2017-09-09T10:55:43.946Z,5.83
2017-09-09T10:58:18.395Z,5.30
2017-09-09T11:00:53.020Z,5.60
2017-09-09T11:03:27.454Z,4.83
2017-09-09T11:06:02.026Z,5.60
2017-09-09T11:08:36.602Z,5.37
2017-09-09T11:11:11.200Z,4.90
2017-09-09T11:13:45.797Z,4.50
2017-09-09T11:16:20.343Z,5.70
2017-09-09T11:18:54.839Z,4.63
2017-09-09T11:21:29.339Z,7.80
2017-09-09T11:24:03.970Z,5.23
2017-09-09T11:26:38.486Z,5.07
2017-09-09T11:29:13.147Z,4.90
2017-09-09T11:31:47.724Z,5.33
2017-09-09T11:34:22.291Z,5.77
2017-09-09T11:36:56.839Z,5.90
2017-09-09T11:39:31.540Z,5.67
2017-09-09T11:42:06.064Z,5.37
2017-09-09T11:44:40.595Z,5.20
2017-09-09T11:47:15.175Z,5.70
2017-09-09T11:49:49.602Z,5.60
2017-09-09T11:52:24.225Z,4.53
2017-09-09T11:54:58.735Z,5.30
2017-09-09T11:57:33.239Z,4.70
2017-09-09T12:00:15.357Z,5.10
2017-09-09T12:02:50.004Z,5.63
2017-09-09T12:05:24.501Z,5.67
2017-09-09T12:07:59.185Z,5.47
2017-09-09T12:10:33.814Z,4.70
2017-09-09T12:13:08.355Z,4.67
2017-09-09T12:15:42.894Z,5.67
2017-09-09T12:18:17.458Z,4.93
2017-09-09T12:20:52.056Z,6.47
2017-09-09T12:23:26.645Z,5.20
2017-09-09T12:26:01.237Z,5.57
2017-09-09T12:28:35.793Z,5.20
2017-09-09T12:31:10.379Z,4.70
2017-09-09T12:33:45.795Z,5.50
2017-09-09T12:36:20.370Z,5.93
2017-09-09T12:38:54.929Z,5.10
2017-09-09T12:41:29.499Z,5.10
2017-09-09T12:44:04.130Z,5.10
2017-09-09T12:46:38.659Z,6.00
2017-09-09T12:49:13.338Z,4.90
2017-09-09T12:51:47.931Z,5.17
2017-09-09T12:54:22.402Z,6.00
2017-09-09T12:56:56.942Z,6.00
2017-09-09T12:59:31.599Z,4.93
2017-09-09T13:02:06.090Z,4.73
2017-09-09T13:04:40.862Z,5.77
2017-09-09T13:07:15.476Z,5.00
2017-09-09T13:09:49.927Z,5.70
2017-09-09T13:12:24.490Z,5.10
2017-09-09T13:14:59.703Z,4.80
2017-09-09T13:17:34.243Z,5.40
2017-09-09T13:20:17.163Z,5.57
2017-09-09T13:22:51.805Z,6.00
2017-09-09T13:25:27.042Z,5.40
2017-09-09T13:28:01.598Z,5.10
2017-09-09T13:30:36.318Z,5.40
2017-09-09T13:33:10.881Z,5.10
2017-09-09T13:35:45.492Z,5.47
2017-09-09T13:38:20.122Z,5.67
2017-09-09T13:40:54.665Z,5.20
2017-09-09T13:43:30.116Z,4.80
2017-09-09T13:46:04.649Z,5.70
2017-09-09T13:48:39.294Z,4.60
2017-09-09T13:51:13.854Z,4.80
2017-09-09T13:53:48.255Z,5.63
2017-09-09T13:56:22.706Z,4.83
2017-09-09T13:58:57.187Z,5.00
2017-09-09T14:01:32.048Z,4.93
2017-09-09T14:04:06.527Z,4.10
2017-09-09T14:06:41.014Z,4.07
2017-09-09T14:09:15.572Z,5.67
2017-09-09T14:11:50.216Z,5.07
2017-09-09T14:14:24.918Z,5.60
2017-09-09T14:16:59.230Z,4.33
2017-09-09T14:19:33.879Z,4.90
2017-09-09T14:22:08.407Z,6.10
2017-09-09T14:24:42.921Z,4.57
2017-09-09T14:27:17.522Z,5.40
2017-09-09T14:29:52.282Z,4.63
2017-09-09T14:32:26.799Z,4.63
2017-09-09T14:35:01.408Z,5.57
2017-09-09T14:37:35.946Z,4.67
2017-09-09T14:40:14.625Z,4.70
2017-09-09T14:42:49.254Z,4.97
2017-09-09T14:45:23.626Z,5.23
2017-09-09T14:47:58.318Z,5.10
2017-09-09T14:50:32.887Z,4.93
2017-09-09T14:53:08.158Z,5.67
2017-09-09T14:55:42.676Z,5.70
2017-09-09T14:58:17.333Z,5.10
2017-09-09T15:00:51.916Z,4.70
2017-09-09T15:03:27.091Z,4.03
2017-09-09T15:06:01.719Z,4.63
2017-09-09T15:08:36.171Z,5.23
2017-09-09T15:11:10.738Z,5.33
2017-09-09T15:13:45.114Z,4.73
2017-09-09T15:16:19.626Z,5.37
2017-09-09T15:18:54.103Z,5.23
2017-09-09T15:21:28.671Z,5.10
2017-09-09T15:24:03.359Z,5.30
2017-09-09T15:26:37.947Z,5.03
2017-09-09T15:29:13.362Z,5.50
2017-09-09T15:31:47.855Z,4.57
2017-09-09T15:34:22.458Z,5.57
2017-09-09T15:36:57.066Z,4.50
2017-09-09T15:39:31.733Z,5.57
2017-09-09T15:42:06.017Z,4.70
2017-09-09T15:44:40.514Z,5.50
2017-09-09T15:47:14.939Z,4.90
2017-09-09T15:49:49.494Z,5.30
2017-09-09T15:52:24.006Z,5.30
2017-09-09T15:54:58.522Z,4.63
2017-09-09T15:57:33.035Z,5.50
2017-09-09T16:00:15.317Z,5.30
2017-09-09T16:02:49.950Z,4.47
2017-09-09T16:05:24.571Z,5.60
2017-09-09T16:07:59.202Z,4.63
2017-09-09T16:10:33.746Z,5.90
2017-09-09T16:13:08.360Z,5.20
2017-09-09T16:15:42.864Z,5.83
2017-09-09T16:18:17.410Z,4.63
2017-09-09T16:20:51.972Z,5.60
2017-09-09T16:23:26.608Z,5.00
2017-09-09T16:26:01.161Z,5.10
2017-09-09T16:28:35.662Z,5.73
2017-09-09T16:31:10.314Z,5.47
2017-09-09T16:33:45.270Z,5.33
2017-09-09T16:36:19.901Z,5.20
2017-09-09T16:38:54.395Z,5.90
2017-09-09T16:41:29.096Z,4.13
2017-09-09T16:44:03.663Z,4.90
2017-09-09T16:46:38.210Z,3.80
2017-09-09T16:49:12.754Z,4.50
2017-09-09T16:51:47.360Z,4.80
2017-09-09T16:54:21.926Z,5.27
2017-09-09T16:56:56.654Z,5.47
2017-09-09T16:59:31.806Z,4.70
2017-09-09T17:02:06.472Z,5.17
2017-09-09T17:04:42.729Z,5.80
2017-09-09T17:07:17.760Z,5.20
2017-09-09T17:09:52.288Z,5.27
2017-09-09T17:12:26.810Z,4.47
2017-09-09T17:15:01.506Z,4.30
2017-09-09T17:17:36.034Z,4.30
2017-09-09T17:20:16.730Z,4.67
2017-09-09T17:22:52.064Z,4.67
2017-09-09T17:25:26.541Z,5.27
2017-09-09T17:28:01.054Z,5.07
2017-09-09T17:30:35.635Z,4.60
2017-09-09T17:33:10.346Z,4.93
2017-09-09T17:35:44.921Z,4.60
2017-09-09T17:38:19.420Z,4.43
2017-09-09T17:40:53.982Z,4.30
2017-09-09T17:43:28.307Z,4.37
2017-09-09T17:46:02.937Z,3.90
2017-09-09T17:48:37.521Z,4.53
2017-09-09T17:51:12.089Z,5.53
2017-09-09T17:53:46.699Z,4.53
2017-09-09T17:56:21.175Z,4.40
2017-09-09T17:58:55.791Z,4.47
2017-09-09T18:01:30.382Z,5.17
2017-09-09T18:04:04.869Z,4.77
2017-09-09T18:06:39.394Z,5.00
2017-09-09T18:09:13.892Z,4.83
2017-09-09T18:11:48.402Z,5.97
2017-09-09T18:14:22.996Z,4.77
2017-09-09T18:16:57.715Z,5.47
2017-09-09T18:19:32.241Z,6.90
2017-09-09T18:22:06.842Z,5.37
2017-09-09T18:24:41.516Z,6.00
2017-09-09T18:27:16.031Z,6.23
2017-09-09T18:29:50.554Z,5.93
2017-09-09T18:32:25.073Z,5.90
2017-09-09T18:34:59.687Z,6.70
2017-09-09T18:37:34.214Z,6.53
2017-09-09T18:40:16.092Z,6.50
2017-09-09T18:42:50.654Z,6.43
2017-09-09T18:45:25.155Z,6.40
2017-09-09T18:47:59.714Z,7.37
2017-09-09T18:50:36.584Z,6.53
2017-09-09T18:53:11.073Z,6.40
2017-09-09T18:55:45.626Z,6.83
2017-09-09T18:58:20.302Z,6.17
2017-09-09T19:00:55.238Z,6.50
2017-09-09T19:03:29.810Z,7.50
2017-09-09T19:06:04.379Z,7.70
2017-09-09T19:08:38.693Z,7.57
2017-09-09T19:11:13.022Z,7.67
2017-09-09T19:13:47.681Z,8.17
2017-09-09T19:16:22.370Z,8.10
2017-09-09T19:18:57.165Z,7.90
2017-09-09T19:21:32.054Z,10.30
2017-09-09T19:24:08.071Z,7.83
2017-09-09T19:26:42.931Z,7.57
2017-09-09T19:29:17.544Z,8.80
2017-09-09T19:31:52.173Z,8.00
2017-09-09T19:34:26.790Z,8.47
2017-09-09T19:37:01.349Z,8.87
2017-09-09T19:39:35.956Z,7.43
2017-09-09T19:42:10.610Z,9.20
2017-09-09T19:44:45.070Z,9.00
2017-09-09T19:47:19.624Z,9.17
2017-09-09T19:49:54.142Z,9.67
2017-09-09T19:52:28.794Z,9.80
2017-09-09T19:55:09.939Z,8.87
2017-09-09T19:57:44.424Z,8.10
2017-09-09T20:00:18.911Z,10.20
2017-09-09T20:02:53.544Z,8.90
2017-09-09T20:05:28.095Z,8.70
2017-09-09T20:08:02.588Z,10.27
2017-09-09T20:10:37.094Z,9.33
2017-09-09T20:13:13.214Z,9.70
2017-09-09T20:15:47.667Z,10.40
2017-09-09T20:18:22.254Z,9.63
2017-09-09T20:20:56.563Z,9.10
2017-09-09T20:23:30.985Z,11.03
2017-09-09T20:26:05.370Z,9.40
2017-09-09T20:28:40.279Z,9.83
2017-09-09T20:31:14.823Z,9.20
2017-09-09T20:33:49.414Z,9.73
2017-09-09T20:36:23.998Z,10.13
2017-09-09T20:38:58.707Z,9.40
2017-09-09T20:41:33.306Z,8.97
2017-09-09T20:44:07.943Z,9.20
2017-09-09T20:46:42.867Z,9.73
2017-09-09T20:49:17.347Z,9.60
2017-09-09T20:51:51.671Z,9.50
2017-09-09T20:54:26.019Z,9.83
2017-09-09T20:57:00.401Z,9.60
2017-09-09T20:59:35.107Z,10.00
2017-09-09T21:02:09.656Z,10.57
2017-09-09T21:04:43.985Z,9.20
2017-09-09T21:07:18.518Z,11.40
2017-09-09T21:09:53.206Z,11.00
2017-09-09T21:12:27.675Z,9.40
2017-09-09T21:15:02.398Z,9.60
2017-09-09T21:17:41.633Z,10.67
2017-09-09T21:20:16.149Z,11.00
2017-09-09T21:22:50.639Z,9.83
2017-09-09T21:25:25.189Z,11.40
2017-09-09T21:27:59.723Z,10.73
2017-09-09T21:30:34.298Z,9.87
2017-09-09T21:33:08.786Z,9.47
2017-09-09T21:35:43.362Z,9.40
2017-09-09T21:38:17.778Z,9.90
2017-09-09T21:40:52.362Z,10.13
2017-09-09T21:43:26.909Z,8.83
2017-09-09T21:46:01.750Z,9.60
2017-09-09T21:48:36.257Z,9.80
2017-09-09T21:51:10.719Z,9.17
2017-09-09T21:53:45.344Z,8.97
2017-09-09T21:56:19.586Z,9.50
2017-09-09T21:58:54.142Z,9.97
2017-09-09T22:01:29.079Z,9.47
2017-09-09T22:04:03.670Z,10.87
2017-09-09T22:06:38.214Z,8.30
2017-09-09T22:09:12.756Z,9.70
2017-09-09T22:11:47.327Z,8.27
2017-09-09T22:14:21.952Z,9.40
2017-09-09T22:16:56.781Z,9.30
2017-09-09T22:19:31.214Z,8.27
2017-09-09T22:22:05.931Z,9.10
2017-09-09T22:24:40.574Z,8.90
2017-09-09T22:27:15.078Z,8.83
2017-09-09T22:29:49.499Z,9.47
2017-09-09T22:32:24.091Z,8.47
2017-09-09T22:34:58.649Z,8.90
2017-09-09T22:37:33.450Z,9.10
2017-09-09T22:40:15.671Z,7.60
2017-09-09T22:42:50.094Z,8.20
2017-09-09T22:45:24.664Z,8.63
2017-09-09T22:47:59.059Z,7.73
2017-09-09T22:50:33.655Z,7.73
2017-09-09T22:53:08.095Z,7.63
2017-09-09T22:55:42.702Z,7.87
2017-09-09T22:58:17.348Z,7.10
2017-09-09T23:00:51.850Z,7.20
2017-09-09T23:03:26.328Z,6.70
2017-09-09T23:06:01.126Z,7.20
2017-09-09T23:08:35.706Z,6.80
2017-09-09T23:11:10.279Z,6.20
2017-09-09T23:13:44.731Z,7.43
2017-09-09T23:16:19.102Z,6.77
2017-09-09T23:18:53.756Z,7.53
2017-09-09T23:21:28.390Z,6.23
2017-09-09T23:24:03.117Z,7.43
2017-09-09T23:26:37.770Z,6.90
2017-09-09T23:29:12.361Z,7.27
2017-09-09T23:31:46.939Z,6.90
2017-09-09T23:34:21.693Z,7.40
2017-09-09T23:36:56.049Z,6.00
2017-09-09T23:39:30.626Z,6.50
2017-09-09T23:42:05.324Z,6.03
2017-09-09T23:44:40.179Z,6.83
2017-09-09T23:47:14.766Z,6.10
2017-09-09T23:49:49.263Z,6.30
2017-09-09T23:52:23.841Z,6.07
2017-09-09T23:54:58.423Z,6.57
2017-09-09T23:57:32.980Z,6.50
